createdAt,value
2018-09-06T00:01:04.990Z,17.70
2018-09-06T00:03:33.140Z,17.60
2018-09-06T00:06:01.326Z,17.70
2018-09-06T00:08:29.484Z,17.70
2018-09-06T00:10:57.806Z,17.80
2018-09-06T00:13:25.962Z,17.70
2018-09-06T00:15:54.120Z,17.70
2018-09-06T00:18:22.278Z,17.80
2018-09-06T00:20:50.447Z,17.80
2018-09-06T00:23:18.604Z,17.50
2018-09-06T00:25:46.788Z,17.50
2018-09-06T00:28:14.956Z,17.50
2018-09-06T00:30:43.152Z,17.60
2018-09-06T00:33:11.388Z,17.70
2018-09-06T00:35:39.548Z,17.50
2018-09-06T00:38:07.713Z,17.40
2018-09-06T00:40:35.880Z,17.30
2018-09-06T00:43:04.046Z,17.40
2018-09-06T00:45:32.211Z,17.50
2018-09-06T00:48:00.476Z,17.50
2018-09-06T00:50:32.888Z,17.40
2018-09-06T00:53:01.090Z,17.40
2018-09-06T00:55:29.244Z,17.40
2018-09-06T00:57:57.413Z,17.50
2018-09-06T01:00:25.637Z,17.50
2018-09-06T01:02:53.828Z,17.60
2018-09-06T01:05:22.008Z,17.60
2018-09-06T01:07:50.183Z,17.60
2018-09-06T01:10:18.344Z,17.70
2018-09-06T01:12:46.512Z,17.70
2018-09-06T01:15:14.684Z,17.80
2018-09-06T01:17:42.878Z,17.80
2018-09-06T01:20:11.095Z,17.70
2018-09-06T01:22:39.281Z,17.70
2018-09-06T01:25:07.450Z,17.70
2018-09-06T01:27:35.628Z,17.80
2018-09-06T01:30:03.828Z,17.90
2018-09-06T01:32:31.979Z,17.90
2018-09-06T01:35:00.152Z,17.90
2018-09-06T01:37:28.416Z,17.80
2018-09-06T01:39:56.585Z,17.80
2018-09-06T01:42:24.985Z,17.80
2018-09-06T01:44:53.138Z,17.80
2018-09-06T01:47:21.304Z,17.90
2018-09-06T01:49:49.468Z,17.90
2018-09-06T01:52:17.640Z,17.90
2018-09-06T01:54:45.800Z,17.90
2018-09-06T01:57:14.004Z,17.90
2018-09-06T01:59:42.171Z,18.00
2018-09-06T02:02:10.348Z,18.00
2018-09-06T02:04:38.676Z,18.00
2018-09-06T02:07:07.236Z,17.90
2018-09-06T02:09:35.418Z,17.90
2018-09-06T02:12:03.559Z,17.90
2018-09-06T02:14:31.728Z,17.90
2018-09-06T02:16:59.889Z,17.70
2018-09-06T02:19:28.064Z,17.60
2018-09-06T02:21:56.231Z,17.60
2018-09-06T02:24:24.467Z,17.60
2018-09-06T02:26:52.545Z,17.50
2018-09-06T02:29:20.713Z,17.50
2018-09-06T02:31:48.896Z,17.40
2018-09-06T02:34:17.055Z,17.50
2018-09-06T02:36:45.226Z,17.40
2018-09-06T02:39:13.420Z,17.50
2018-09-06T02:41:41.584Z,17.60
2018-09-06T02:44:09.768Z,17.70
2018-09-06T02:46:37.984Z,17.80
2018-09-06T02:49:06.137Z,17.90
2018-09-06T02:51:34.296Z,17.90
2018-09-06T02:54:03.190Z,17.90
2018-09-06T02:56:31.254Z,17.70
2018-09-06T02:58:59.434Z,17.70
2018-09-06T03:01:27.693Z,17.60
2018-09-06T03:03:55.873Z,17.60
2018-09-06T03:06:24.196Z,17.40
2018-09-06T03:08:52.372Z,17.50
2018-09-06T03:11:23.221Z,17.50
2018-09-06T03:13:51.876Z,17.50
2018-09-06T03:16:20.292Z,17.40
2018-09-06T03:18:48.460Z,17.40
2018-09-06T03:21:16.684Z,17.50
2018-09-06T03:23:45.317Z,17.50
2018-09-06T03:26:17.016Z,17.50
2018-09-06T03:28:45.908Z,17.40
2018-09-06T03:31:14.616Z,17.40
2018-09-06T03:33:43.003Z,17.60
2018-09-06T03:36:11.181Z,17.60
2018-09-06T03:38:39.336Z,17.70
2018-09-06T03:41:07.583Z,17.70
2018-09-06T03:43:35.813Z,17.80
2018-09-06T03:46:04.989Z,17.80
2018-09-06T03:48:33.159Z,17.90
2018-09-06T03:51:01.327Z,17.90
2018-09-06T03:53:29.503Z,17.90
2018-09-06T03:55:57.644Z,18.00
2018-09-06T03:58:25.801Z,17.90
2018-09-06T04:00:53.964Z,18.00
2018-09-06T04:03:22.117Z,17.90
2018-09-06T04:05:50.548Z,17.90
2018-09-06T04:08:18.734Z,17.90
2018-09-06T04:10:46.934Z,17.90
2018-09-06T04:13:15.152Z,17.80
2018-09-06T04:15:43.332Z,17.80
2018-09-06T04:18:11.564Z,17.70
2018-09-06T04:20:39.725Z,17.60
2018-09-06T04:23:07.920Z,17.60
2018-09-06T04:25:36.089Z,17.40
2018-09-06T04:28:04.362Z,17.30
2018-09-06T04:30:32.555Z,17.30
2018-09-06T04:33:00.732Z,17.30
2018-09-06T04:35:29.001Z,17.30
2018-09-06T04:38:07.225Z,17.30
2018-09-06T04:40:35.596Z,17.20
2018-09-06T04:43:03.862Z,17.20
2018-09-06T04:45:32.105Z,17.30
2018-09-06T04:48:00.348Z,17.40
2018-09-06T04:50:28.635Z,17.50
2018-09-06T04:52:56.880Z,17.50
2018-09-06T04:55:25.264Z,17.50
2018-09-06T04:57:53.513Z,17.50
2018-09-06T05:00:21.805Z,17.50
2018-09-06T05:02:50.378Z,17.50
2018-09-06T05:05:18.691Z,17.30
2018-09-06T05:07:46.950Z,17.30
2018-09-06T05:10:15.225Z,17.30
2018-09-06T05:12:43.503Z,17.40
2018-09-06T05:15:11.834Z,17.50
2018-09-06T05:17:40.103Z,17.60
2018-09-06T05:20:08.479Z,17.60
2018-09-06T05:22:36.801Z,17.70
2018-09-06T05:25:05.266Z,17.80
2018-09-06T05:27:33.580Z,17.80
2018-09-06T05:30:01.916Z,17.90
2018-09-06T05:32:30.246Z,18.00
2018-09-06T05:34:58.619Z,18.00
2018-09-06T05:37:26.866Z,18.00
2018-09-06T05:39:55.229Z,18.10
2018-09-06T05:42:23.534Z,18.20
2018-09-06T05:44:51.888Z,18.30
2018-09-06T05:47:20.201Z,18.30
2018-09-06T05:49:48.543Z,18.40
2018-09-06T05:52:16.814Z,18.40
2018-09-06T05:54:45.218Z,18.50
2018-09-06T05:57:15.724Z,18.60
2018-09-06T05:59:44.068Z,18.70
2018-09-06T06:02:12.382Z,18.80
2018-09-06T06:04:40.588Z,18.90
2018-09-06T06:07:08.882Z,19.00
2018-09-06T06:09:37.126Z,19.10
2018-09-06T06:12:05.373Z,19.10
2018-09-06T06:14:33.623Z,19.20
2018-09-06T06:17:01.974Z,19.20
2018-09-06T06:19:30.198Z,19.20
2018-09-06T06:21:58.425Z,19.20
2018-09-06T06:24:26.687Z,19.20
2018-09-06T06:26:54.969Z,19.20
2018-09-06T06:29:23.221Z,19.20
2018-09-06T06:31:51.493Z,19.20
2018-09-06T06:34:19.933Z,19.10
2018-09-06T06:36:48.170Z,19.10
2018-09-06T06:39:16.367Z,19.10
2018-09-06T06:41:44.662Z,19.10
2018-09-06T06:44:12.916Z,19.30
2018-09-06T06:46:41.368Z,19.30
2018-09-06T06:49:09.673Z,19.50
2018-09-06T06:51:37.828Z,19.60
2018-09-06T06:54:06.100Z,19.80
2018-09-06T06:56:35.199Z,19.60
2018-09-06T06:59:03.457Z,19.80
2018-09-06T07:01:31.970Z,20.10
2018-09-06T07:04:00.222Z,20.30
2018-09-06T07:06:28.721Z,20.50
2018-09-06T07:08:56.943Z,20.70
2018-09-06T07:11:25.169Z,20.80
2018-09-06T07:13:53.383Z,21.10
2018-09-06T07:16:21.608Z,21.30
2018-09-06T07:18:49.972Z,21.60
2018-09-06T07:21:18.608Z,22.00
2018-09-06T07:26:14.819Z,22.30
2018-09-06T07:28:43.052Z,22.70
2018-09-06T07:31:11.274Z,23.10
2018-09-06T07:33:39.866Z,23.50
2018-09-06T07:36:08.095Z,24.00
2018-09-06T07:41:04.269Z,23.80
2018-09-06T07:43:32.537Z,25.00
2018-09-06T07:46:01.017Z,25.90
2018-09-06T07:48:29.318Z,27.50
2018-09-06T07:50:57.652Z,28.50
2018-09-06T07:53:25.830Z,28.80
2018-09-06T07:55:54.055Z,28.20
2018-09-06T07:58:23.282Z,28.20
2018-09-06T08:00:51.464Z,28.90
2018-09-06T08:03:19.636Z,28.90
2018-09-06T08:05:47.846Z,29.30
2018-09-06T08:08:16.017Z,29.80
2018-09-06T08:10:44.207Z,28.90
2018-09-06T08:13:12.386Z,28.40
2018-09-06T08:15:40.544Z,27.30
2018-09-06T08:18:08.696Z,26.20
2018-09-06T08:20:36.866Z,25.20
2018-09-06T08:23:05.046Z,24.50
2018-09-06T08:25:33.409Z,24.20
2018-09-06T08:28:01.578Z,23.80
2018-09-06T08:30:29.759Z,23.90
2018-09-06T08:32:57.895Z,23.40
2018-09-06T08:35:26.044Z,24.50
2018-09-06T08:37:54.212Z,26.10
2018-09-06T08:40:22.384Z,28.10
2018-09-06T08:42:50.540Z,28.80
2018-09-06T08:45:19.771Z,27.80
2018-09-06T08:47:47.917Z,26.70
2018-09-06T08:50:16.086Z,25.30
2018-09-06T08:52:44.244Z,24.60
2018-09-06T08:57:40.352Z,23.80
2018-09-06T09:00:08.533Z,23.10
2018-09-06T09:02:36.831Z,23.00
2018-09-06T09:05:04.940Z,23.20
2018-09-06T09:07:33.160Z,23.20
2018-09-06T09:10:01.265Z,23.00
2018-09-06T09:12:29.500Z,22.90
2018-09-06T09:14:57.606Z,22.70
2018-09-06T09:17:25.776Z,22.30
2018-09-06T09:19:54.013Z,22.00
2018-09-06T09:22:22.217Z,22.10
2018-09-06T09:24:50.324Z,21.80
2018-09-06T09:27:18.570Z,21.70
2018-09-06T09:29:46.800Z,21.70
2018-09-06T09:34:43.033Z,21.30
2018-09-06T09:37:11.247Z,21.40
2018-09-06T09:39:39.489Z,21.40
2018-09-06T09:42:07.701Z,21.50
2018-09-06T09:44:35.947Z,21.40
2018-09-06T09:49:31.854Z,21.20
2018-09-06T09:52:00.003Z,21.00
2018-09-06T09:54:28.432Z,20.80
2018-09-06T09:56:56.955Z,20.90
2018-09-06T09:59:25.246Z,20.70
2018-09-06T10:01:58.916Z,20.70
2018-09-06T10:04:43.513Z,20.60
2018-09-06T10:07:17.178Z,20.60
2018-09-06T10:09:45.660Z,20.40
2018-09-06T10:12:13.887Z,20.40
2018-09-06T10:17:10.504Z,20.20
2018-09-06T10:19:38.826Z,20.10
2018-09-06T10:22:07.137Z,20.00
2018-09-06T10:24:35.379Z,20.00
2018-09-06T10:27:03.600Z,19.90
2018-09-06T10:29:32.376Z,19.90
2018-09-06T10:32:00.615Z,19.90
2018-09-06T10:34:28.844Z,20.10
2018-09-06T10:36:57.115Z,20.20
2018-09-06T10:39:25.432Z,20.30
2018-09-06T10:41:53.637Z,20.10
2018-09-06T10:44:21.869Z,20.00
2018-09-06T10:46:50.097Z,20.10
2018-09-06T10:49:18.394Z,19.90
2018-09-06T10:51:46.648Z,19.90
2018-09-06T10:54:14.917Z,19.90
2018-09-06T10:56:43.157Z,20.10
2018-09-06T10:59:11.427Z,20.10
2018-09-06T11:01:39.658Z,20.10
2018-09-06T11:04:07.911Z,20.10
2018-09-06T11:06:36.172Z,20.10
2018-09-06T11:09:05.294Z,20.10
2018-09-06T11:11:33.645Z,19.90
2018-09-06T11:14:01.857Z,19.90
2018-09-06T11:16:30.116Z,20.00
2018-09-06T11:18:58.389Z,19.90
2018-09-06T11:21:26.944Z,19.90
2018-09-06T11:23:55.164Z,19.80
2018-09-06T11:26:23.442Z,19.60
2018-09-06T11:28:51.701Z,19.40
2018-09-06T11:31:20.015Z,19.30
2018-09-06T11:33:48.284Z,19.50
2018-09-06T11:36:16.517Z,19.70
2018-09-06T11:38:44.784Z,19.90
2018-09-06T11:41:13.446Z,20.00
2018-09-06T11:43:41.792Z,19.80
2018-09-06T11:46:10.037Z,19.80
2018-09-06T11:48:38.569Z,19.80
2018-09-06T11:51:07.729Z,19.90
2018-09-06T11:53:35.996Z,19.90
2018-09-06T11:56:04.232Z,19.90
2018-09-06T11:58:32.501Z,19.50
2018-09-06T12:01:00.960Z,19.60
2018-09-06T12:03:35.826Z,19.70
2018-09-06T12:06:04.173Z,19.70
2018-09-06T12:08:32.467Z,19.80
2018-09-06T12:11:00.727Z,19.90
2018-09-06T12:13:29.043Z,19.90
2018-09-06T12:15:57.340Z,19.80
2018-09-06T12:18:25.631Z,19.80
2018-09-06T12:20:54.432Z,19.90
2018-09-06T12:23:22.736Z,19.90
2018-09-06T12:25:51.276Z,19.80
2018-09-06T12:28:19.578Z,19.90
2018-09-06T12:30:47.832Z,19.90
2018-09-06T12:33:16.192Z,20.00
2018-09-06T12:35:44.524Z,20.00
2018-09-06T12:38:13.017Z,19.80
2018-09-06T12:40:41.341Z,19.90
2018-09-06T12:43:09.635Z,19.70
2018-09-06T12:45:37.884Z,19.80
2018-09-06T12:48:06.221Z,19.90
2018-09-06T12:50:34.497Z,20.00
2018-09-06T12:53:02.724Z,20.00
2018-09-06T12:55:30.923Z,20.00
2018-09-06T12:57:59.136Z,20.10
2018-09-06T13:00:27.744Z,20.10
2018-09-06T13:05:24.219Z,20.30
2018-09-06T13:07:52.484Z,20.50
2018-09-06T13:10:20.742Z,20.50
2018-09-06T13:12:49.011Z,20.70
2018-09-06T13:15:17.288Z,20.80
2018-09-06T13:17:45.587Z,20.80
2018-09-06T13:20:13.849Z,20.90
2018-09-06T13:22:42.097Z,21.10
2018-09-06T13:25:10.351Z,21.20
2018-09-06T13:27:38.545Z,21.20
2018-09-06T13:30:06.824Z,21.50
2018-09-06T13:32:35.125Z,21.60
2018-09-06T13:35:03.620Z,21.70
2018-09-06T13:37:31.890Z,21.60
2018-09-06T13:40:00.154Z,21.60
2018-09-06T13:42:28.400Z,21.70
2018-09-06T13:44:56.836Z,21.80
2018-09-06T13:47:25.076Z,21.80
2018-09-06T13:49:53.387Z,22.10
2018-09-06T13:52:21.661Z,22.20
2018-09-06T13:54:49.915Z,22.40
2018-09-06T13:57:18.112Z,22.40
2018-09-06T13:59:46.387Z,22.50
2018-09-06T14:02:14.657Z,22.50
2018-09-06T14:04:42.911Z,22.50
2018-09-06T14:07:11.193Z,22.60
2018-09-06T14:09:39.464Z,22.40
2018-09-06T14:12:07.964Z,22.50
2018-09-06T14:14:36.228Z,22.60
2018-09-06T14:17:04.425Z,22.60
2018-09-06T14:19:32.701Z,22.50
2018-09-06T14:22:01.489Z,22.40
2018-09-06T14:24:29.848Z,22.30
2018-09-06T14:26:58.252Z,22.30
2018-09-06T14:29:26.777Z,22.40
2018-09-06T14:31:55.077Z,22.40
2018-09-06T14:34:23.612Z,22.40
2018-09-06T14:36:51.829Z,22.60
2018-09-06T14:39:20.104Z,22.60
2018-09-06T14:41:48.338Z,22.70
2018-09-06T14:44:16.586Z,22.60
2018-09-06T14:46:44.860Z,22.60
2018-09-06T14:49:14.213Z,22.50
2018-09-06T14:51:42.484Z,22.60
2018-09-06T14:54:10.797Z,22.60
2018-09-06T14:56:39.264Z,22.70
2018-09-06T14:59:07.488Z,22.70
2018-09-06T15:01:37.109Z,22.80
2018-09-06T15:04:05.665Z,22.70
2018-09-06T15:06:33.910Z,22.50
2018-09-06T15:09:02.112Z,22.50
2018-09-06T15:11:31.607Z,22.60
2018-09-06T15:14:00.822Z,22.60
2018-09-06T15:16:29.016Z,22.50
2018-09-06T15:18:57.272Z,22.40
2018-09-06T15:21:25.539Z,22.40
2018-09-06T15:23:53.778Z,22.40
2018-09-06T15:26:22.062Z,22.40
2018-09-06T15:28:50.345Z,22.50
2018-09-06T15:31:18.624Z,22.60
2018-09-06T15:33:46.835Z,22.60
2018-09-06T15:36:15.095Z,22.50
2018-09-06T15:38:43.359Z,22.60
2018-09-06T15:41:11.721Z,22.60
2018-09-06T15:43:40.027Z,22.50
2018-09-06T15:46:08.309Z,22.20
2018-09-06T15:48:36.570Z,22.30
2018-09-06T15:51:04.833Z,22.20
2018-09-06T15:53:33.059Z,22.20
2018-09-06T15:56:01.297Z,22.10
2018-09-06T15:58:29.522Z,22.20
2018-09-06T16:00:58.565Z,22.00
2018-09-06T16:03:26.873Z,21.90
2018-09-06T16:05:55.412Z,21.80
2018-09-06T16:08:24.021Z,21.90
2018-09-06T16:10:52.265Z,22.00
2018-09-06T16:13:21.155Z,21.90
2018-09-06T16:15:49.437Z,21.90
2018-09-06T16:18:17.916Z,22.00
2018-09-06T16:20:46.205Z,22.00
2018-09-06T16:23:14.490Z,22.10
2018-09-06T16:25:42.746Z,22.10
2018-09-06T16:28:11.385Z,22.00
2018-09-06T16:30:39.645Z,22.00
2018-09-06T16:33:07.910Z,22.00
2018-09-06T16:35:36.483Z,22.00
2018-09-06T16:38:04.783Z,21.90
2018-09-06T16:40:33.020Z,21.80
2018-09-06T16:43:01.275Z,21.70
2018-09-06T16:45:29.577Z,21.70
2018-09-06T16:47:57.829Z,21.70
2018-09-06T16:50:26.081Z,21.70
2018-09-06T16:52:54.302Z,21.70
2018-09-06T16:55:22.573Z,21.50
2018-09-06T16:57:50.802Z,21.40
2018-09-06T17:00:19.034Z,21.40
2018-09-06T17:02:47.277Z,21.30
2018-09-06T17:05:15.511Z,21.30
2018-09-06T17:07:43.726Z,21.20
2018-09-06T17:10:11.936Z,21.20
2018-09-06T17:12:40.194Z,21.20
2018-09-06T17:15:08.428Z,21.10
2018-09-06T17:17:36.648Z,21.10
2018-09-06T17:20:04.926Z,21.10
2018-09-06T17:22:33.190Z,21.10
2018-09-06T17:25:01.408Z,21.00
2018-09-06T17:27:29.641Z,20.90
2018-09-06T17:29:57.864Z,21.00
2018-09-06T17:32:26.310Z,20.90
2018-09-06T17:34:54.513Z,20.90
2018-09-06T17:37:22.761Z,20.80
2018-09-06T17:39:51.398Z,20.90
2018-09-06T17:42:19.696Z,20.80
2018-09-06T17:44:47.988Z,20.80
2018-09-06T17:47:16.229Z,20.70
2018-09-06T17:49:44.451Z,20.70
2018-09-06T17:52:12.659Z,20.70
2018-09-06T17:54:40.892Z,20.60
2018-09-06T17:57:09.253Z,20.50
2018-09-06T17:59:37.426Z,20.40
2018-09-06T18:02:05.709Z,20.40
2018-09-06T18:04:33.924Z,20.40
2018-09-06T18:07:02.134Z,20.30
2018-09-06T18:09:30.368Z,20.30
2018-09-06T18:11:58.624Z,20.40
2018-09-06T18:14:26.824Z,20.40
2018-09-06T18:16:55.098Z,20.40
2018-09-06T18:19:23.272Z,20.40
2018-09-06T18:21:51.452Z,20.50
2018-09-06T18:24:19.628Z,20.50
2018-09-06T18:26:47.780Z,20.40
2018-09-06T18:29:16.075Z,20.40
2018-09-06T18:31:44.250Z,20.40
2018-09-06T18:34:12.420Z,20.30
2018-09-06T18:36:40.601Z,20.30
2018-09-06T18:39:08.797Z,20.10
2018-09-06T18:41:36.968Z,20.10
2018-09-06T18:44:05.172Z,20.10
2018-09-06T18:46:33.360Z,20.00
2018-09-06T18:49:01.639Z,19.90
2018-09-06T18:51:29.801Z,19.90
2018-09-06T18:53:57.965Z,19.90
2018-09-06T18:56:26.120Z,19.80
2018-09-06T18:58:54.291Z,19.70
2018-09-06T19:01:22.464Z,19.80
2018-09-06T19:03:51.092Z,19.70
2018-09-06T19:06:20.196Z,19.50
2018-09-06T19:08:48.383Z,19.40
2018-09-06T19:11:16.631Z,19.40
2018-09-06T19:13:44.833Z,19.40
2018-09-06T19:16:13.027Z,19.40
2018-09-06T19:18:41.202Z,19.30
2018-09-06T19:21:09.516Z,19.30
2018-09-06T19:23:37.676Z,19.20
2018-09-06T19:26:05.946Z,19.20
2018-09-06T19:28:34.057Z,19.20
2018-09-06T19:31:02.214Z,19.20
2018-09-06T19:33:30.396Z,19.10
2018-09-06T19:35:58.556Z,19.10
2018-09-06T19:38:26.757Z,19.10
2018-09-06T19:40:54.958Z,19.10
2018-09-06T19:43:23.112Z,19.00
2018-09-06T19:45:51.281Z,19.10
2018-09-06T19:48:19.541Z,19.00
2018-09-06T19:50:47.753Z,19.10
2018-09-06T19:53:15.928Z,19.00
2018-09-06T19:55:44.279Z,19.00
2018-09-06T19:58:12.490Z,19.00
2018-09-06T20:00:40.677Z,18.90
2018-09-06T20:03:08.868Z,18.90
2018-09-06T20:05:37.042Z,18.90
2018-09-06T20:08:05.263Z,18.90
2018-09-06T20:10:33.384Z,18.90
2018-09-06T20:13:01.564Z,18.90
2018-09-06T20:15:29.736Z,19.00
2018-09-06T20:17:57.979Z,19.00
2018-09-06T20:20:26.160Z,18.90
2018-09-06T20:22:54.327Z,18.80
2018-09-06T20:25:22.505Z,18.70
2018-09-06T20:27:50.702Z,18.60
2018-09-06T20:30:18.820Z,18.60
2018-09-06T20:32:47.016Z,18.50
2018-09-06T20:35:15.214Z,18.40
2018-09-06T20:37:43.372Z,18.30
2018-09-06T20:40:11.589Z,18.30
2018-09-06T20:42:39.836Z,18.30
2018-09-06T20:45:08.009Z,18.30
2018-09-06T20:47:36.172Z,18.20
2018-09-06T20:50:04.341Z,18.20
2018-09-06T20:52:32.501Z,18.20
2018-09-06T20:55:00.694Z,18.10
2018-09-06T20:57:28.856Z,18.00
2018-09-06T20:59:57.012Z,18.00
2018-09-06T21:02:25.882Z,17.90
2018-09-06T21:04:54.672Z,17.90
2018-09-06T21:07:23.158Z,17.80
2018-09-06T21:09:51.323Z,17.70
2018-09-06T21:12:19.487Z,17.70
2018-09-06T21:14:47.656Z,17.60
2018-09-06T21:17:15.823Z,17.60
2018-09-06T21:19:43.983Z,17.60
2018-09-06T21:22:12.172Z,17.50
2018-09-06T21:24:40.356Z,17.50
2018-09-06T21:27:08.512Z,17.50
2018-09-06T21:29:36.668Z,17.60
2018-09-06T21:32:05.252Z,17.60
2018-09-06T21:34:33.431Z,17.60
2018-09-06T21:37:01.595Z,17.60
2018-09-06T21:39:29.744Z,17.70
2018-09-06T21:41:57.915Z,17.70
2018-09-06T21:44:26.089Z,17.70
2018-09-06T21:46:54.281Z,17.70
2018-09-06T21:49:22.440Z,17.70
2018-09-06T21:51:50.589Z,17.70
2018-09-06T21:54:18.754Z,17.60
2018-09-06T21:56:46.976Z,17.70
2018-09-06T21:59:15.149Z,17.70
2018-09-06T22:01:43.304Z,17.60
2018-09-06T22:04:11.456Z,17.60
2018-09-06T22:06:39.753Z,17.60
2018-09-06T22:09:09.972Z,17.60
2018-09-06T22:11:38.190Z,17.50
2018-09-06T22:14:06.532Z,17.60
2018-09-06T22:16:34.729Z,17.50
2018-09-06T22:19:02.900Z,17.50
2018-09-06T22:21:31.076Z,17.50
2018-09-06T22:23:59.260Z,17.50
2018-09-06T22:26:27.550Z,17.50
2018-09-06T22:28:55.705Z,17.60
2018-09-06T22:31:23.872Z,17.50
2018-09-06T22:33:52.036Z,17.60
2018-09-06T22:36:20.213Z,17.50
2018-09-06T22:38:48.392Z,17.50
2018-09-06T22:41:16.565Z,17.50
2018-09-06T22:43:44.751Z,17.50
2018-09-06T22:46:12.904Z,17.50
2018-09-06T22:48:41.101Z,17.50
2018-09-06T22:51:09.361Z,17.50
2018-09-06T22:53:37.514Z,17.40
2018-09-06T22:56:05.697Z,17.40
2018-09-06T22:58:33.864Z,17.50
2018-09-06T23:01:02.036Z,17.40
2018-09-06T23:03:35.676Z,17.40
2018-09-06T23:06:03.840Z,17.40
2018-09-06T23:08:32.008Z,17.50
2018-09-06T23:11:00.168Z,17.50
2018-09-06T23:13:28.351Z,17.50
2018-09-06T23:15:56.501Z,17.50
2018-09-06T23:18:24.697Z,17.40
2018-09-06T23:20:52.856Z,17.40
2018-09-06T23:23:21.004Z,17.50
2018-09-06T23:25:49.212Z,17.50
2018-09-06T23:28:17.372Z,17.50
2018-09-06T23:30:45.581Z,17.40
2018-09-06T23:33:13.853Z,17.40
2018-09-06T23:35:44.180Z,17.40
2018-09-06T23:38:13.289Z,17.40
2018-09-06T23:40:45.680Z,17.40
2018-09-06T23:43:13.864Z,17.30
2018-09-06T23:45:42.018Z,17.30
2018-09-06T23:48:10.168Z,17.30
2018-09-06T23:50:38.352Z,17.20
2018-09-06T23:53:06.584Z,17.20
2018-09-06T23:55:34.775Z,17.20
2018-09-06T23:58:02.940Z,17.20
